Time;durP1;ratioP1;P1;durP2;ratioP2;P2;SDS_P1;SDS_P2;PMS_P1;PMS_P2;Temp;Humidity;BMP_temperature;BMP_pressure;BME280_temperature;BME280_humidity;BME280_pressure;Samples;Min_cycle;Max_cycle;Signal;HPM_P1;HPM_P2
2022/01/10 00:01:29;;;;;;;13.55;6.32;;;;;;;-2.07;67.65;91861.81;2074618;69;20140;-69
2022/01/10 00:03:56;;;;;;;11.75;5.80;;;;;;;-1.81;66.72;91869.75;2071562;69;20147;-69
2022/01/10 00:06:22;;;;;;;16.20;7.38;;;;;;;-1.66;65.58;91874.53;2074830;69;20225;-70
2022/01/10 00:08:50;;;;;;;14.75;6.20;;;;;;;-1.59;65.23;91879.34;2074612;69;20579;-69
2022/01/10 00:11:22;;;;;;;13.30;6.57;;;;;;;-1.57;65.60;91884.31;2074817;69;20555;-69
2022/01/10 00:13:50;;;;;;;15.00;6.32;;;;;;;-1.56;65.21;91888.53;2074689;69;20156;-70
2022/01/10 00:16:20;;;;;;;13.25;6.25;;;;;;;-1.53;65.32;91884.66;2074689;69;20155;-70
2022/01/10 00:18:47;;;;;;;19.08;9.40;;;;;;;-1.75;66.12;91886.13;2074435;69;20282;-69
2022/01/10 00:21:13;;;;;;;26.23;10.38;;;;;;;-1.69;65.98;91889.47;2074499;69;20155;-71
2022/01/10 00:23:39;;;;;;;23.90;10.90;;;;;;;-1.69;66.22;91892.22;2074631;69;20606;-70
2022/01/10 00:26:05;;;;;;;22.42;10.85;;;;;;;-1.59;66.02;91895.91;2074282;69;20140;-70
2022/01/10 00:28:30;;;;;;;23.45;10.50;;;;;;;-1.53;66.20;91895.72;2074421;69;20242;-72
2022/01/10 00:30:56;;;;;;;21.17;9.93;;;;;;;-1.48;65.73;91891.28;2071069;69;20190;-76
2022/01/10 00:33:21;;;;;;;22.27;9.48;;;;;;;-1.45;65.30;91892.97;2068253;69;20204;-70
2022/01/10 00:35:47;;;;;;;16.80;8.27;;;;;;;-1.35;65.16;91888.34;2074203;69;20148;-70
2022/01/10 00:38:13;;;;;;;17.73;8.88;;;;;;;-1.45;65.26;91890.94;2074549;69;20171;-71
2022/01/10 00:40:40;;;;;;;20.63;9.13;;;;;;;-1.33;65.01;91897.56;2074374;69;20144;-71
2022/01/10 00:43:08;;;;;;;19.05;9.57;;;;;;;-1.36;65.07;91895.91;2070716;69;20618;-83
2022/01/10 00:45:34;;;;;;;16.30;8.15;;;;;;;-1.37;65.15;91897.19;2074513;69;20235;-70
2022/01/10 00:48:00;;;;;;;18.13;8.55;;;;;;;-1.34;65.47;91896.06;2074507;69;20140;-69
2022/01/10 00:50:28;;;;;;;16.55;8.70;;;;;;;-1.32;65.19;91893.50;2074585;69;20191;-70
2022/01/10 00:52:57;;;;;;;16.08;8.55;;;;;;;-1.24;65.55;91899.00;2074726;69;20164;-73
2022/01/10 00:55:23;;;;;;;18.67;8.35;;;;;;;-1.10;65.23;91899.53;2075064;69;20155;-71
2022/01/10 00:57:48;;;;;;;16.45;8.35;;;;;;;-1.10;64.71;91905.81;2074793;69;20617;-69
2022/01/10 01:00:16;;;;;;;15.25;8.30;;;;;;;-1.12;64.76;91904.88;2071274;69;20213;-75
2022/01/10 01:02:42;;;;;;;17.15;7.70;;;;;;;-1.16;65.70;91905.25;2074878;69;20163;-77
2022/01/10 01:05:11;;;;;;;14.65;7.47;;;;;;;-1.23;65.03;91906.03;2074631;69;20147;-73
2022/01/10 01:07:38;;;;;;;10.93;6.32;;;;;;;-1.25;65.11;91910.59;2071452;69;20171;-72
2022/01/10 01:12:49;;;;;;;14.60;6.97;;;;;;;-1.30;65.15;91924.03;2074813;69;20140;-72
2022/01/10 01:15:24;;;;;;;13.40;6.45;;;;;;;-1.22;65.08;91926.09;2074877;69;20595;-69
2022/01/10 01:26:17;;;;;;;12.65;5.97;;;;;;;-1.18;63.93;91935.47;2075054;69;20213;-76
2022/01/10 01:28:43;;;;;;;11.07;5.70;;;;;;;-1.23;64.54;91939.16;2074963;69;20148;-72
2022/01/10 01:31:09;;;;;;;10.57;5.32;;;;;;;-1.19;64.62;91950.56;2075110;69;20229;-84
2022/01/10 01:33:34;;;;;;;12.52;5.43;;;;;;;-1.32;65.19;91948.72;2071641;69;20140;-74
2022/01/10 01:36:03;;;;;;;14.18;6.32;;;;;;;-1.14;65.11;91955.16;2071575;69;20140;-70
2022/01/10 01:38:30;;;;;;;12.52;6.10;;;;;;;-1.18;65.02;91960.31;2071704;69;20140;-70
2022/01/10 01:41:11;;;;;;;11.68;5.70;;;;;;;-1.20;65.25;91953.88;2074634;69;20152;-70
2022/01/10 01:43:37;;;;;;;14.18;6.00;;;;;;;-1.19;65.28;91963.63;2074848;69;20360;-73
2022/01/10 01:46:05;;;;;;;12.32;5.65;;;;;;;-1.14;65.55;91957.19;2074866;69;20533;-70
2022/01/10 01:48:31;;;;;;;11.40;5.57;;;;;;;-1.16;65.06;91957.75;2071559;69;20148;-72
2022/01/10 01:50:57;;;;;;;10.35;5.25;;;;;;;-1.14;65.68;91959.97;2071319;69;20139;-72
2022/01/10 01:53:26;;;;;;;10.13;5.10;;;;;;;-1.12;65.49;91952.59;2075249;69;20140;-70
2022/01/10 01:55:52;;;;;;;11.18;5.00;;;;;;;-1.07;64.78;91957.19;2074918;69;20183;-74
2022/01/10 01:58:22;;;;;;;14.85;5.07;;;;;;;-1.12;65.09;91966.41;2071360;69;20239;-70
2022/01/10 02:00:48;;;;;;;9.32;4.95;;;;;;;-1.04;64.96;91963.63;2071849;69;20191;-69
2022/01/10 02:03:15;;;;;;;8.80;4.22;;;;;;;-1.08;64.93;91960.50;2075028;69;20518;-69
2022/01/10 02:05:48;;;;;;;8.18;3.67;;;;;;;-0.99;64.21;91964.75;2070853;69;20599;-71
2022/01/10 02:08:17;;;;;;;6.05;2.90;;;;;;;-0.91;63.90;91973.75;2071752;69;20151;-71
2022/01/10 02:10:44;;;;;;;5.13;2.50;;;;;;;-0.94;63.42;91959.00;2071490;69;20151;-70
2022/01/10 02:13:11;;;;;;;4.10;2.53;;;;;;;-0.90;63.38;91964.91;2071050;69;20295;-69
2022/01/10 02:15:59;;;;;;;5.55;2.72;;;;;;;-0.96;63.18;91969.91;2070991;69;20695;-71
2022/01/10 02:18:29;;;;;;;5.30;2.30;;;;;;;-0.96;62.78;91956.09;2070727;69;20232;-81
2022/01/10 02:21:00;;;;;;;4.28;1.95;;;;;;;-0.96;62.41;91972.66;2071217;69;20194;-70
2022/01/10 02:23:28;;;;;;;4.10;2.20;;;;;;;-0.98;62.77;91969.69;2070653;69;20704;-69
2022/01/10 02:26:02;;;;;;;4.38;2.20;;;;;;;-0.96;62.36;91971.91;2070814;69;20144;-69
2022/01/10 02:28:32;;;;;;;4.45;2.13;;;;;;;-0.99;62.34;91984.81;2070719;69;20239;-71
2022/01/10 02:30:58;;;;;;;4.47;1.98;;;;;;;-1.03;61.95;91987.19;2071231;69;20144;-70
2022/01/10 02:33:27;;;;;;;3.45;1.50;;;;;;;-1.20;62.21;91987.00;2070826;69;20615;-69
2022/01/10 02:38:45;;;;;;;4.18;2.15;;;;;;;-1.20;61.65;91987.75;2071533;69;20594;-69
2022/01/10 02:41:22;;;;;;;2.72;1.65;;;;;;;-1.20;61.74;91987.00;2070346;69;20133;-69
2022/01/10 02:43:48;;;;;;;3.85;2.00;;;;;;;-1.22;61.81;91998.63;2070573;69;20218;-70
2022/01/10 02:46:15;;;;;;;3.33;1.80;;;;;;;-1.24;60.91;92000.44;2071124;69;20151;-69
2022/01/10 02:48:44;;;;;;;3.47;1.70;;;;;;;-1.17;60.66;91991.44;2070924;69;20132;-69
2022/01/10 02:51:10;;;;;;;2.95;1.50;;;;;;;-1.24;59.83;91998.41;2071143;69;20515;-69
2022/01/10 02:53:36;;;;;;;2.80;1.60;;;;;;;-1.08;59.16;92001.94;2071024;69;20637;-69
2022/01/10 02:56:02;;;;;;;3.35;1.73;;;;;;;-1.22;59.09;92017.97;2070849;69;20175;-79
2022/01/10 02:58:28;;;;;;;3.38;1.60;;;;;;;-1.18;59.91;92015.56;2070843;69;20232;-76
2022/01/10 03:00:54;;;;;;;4.57;2.15;;;;;;;-1.38;60.41;92010.94;2070943;69;20156;-74
2022/01/10 03:03:20;;;;;;;3.47;1.95;;;;;;;-1.27;60.67;92005.06;2070991;69;20144;-70
2022/01/10 03:05:46;;;;;;;3.55;1.60;;;;;;;-1.19;60.24;92013.34;2070477;69;20205;-70
2022/01/10 03:08:12;;;;;;;3.58;1.50;;;;;;;-1.09;60.10;92014.28;2071294;69;20234;-71
2022/01/10 03:10:37;;;;;;;2.97;1.17;;;;;;;-1.09;59.62;92019.81;2071364;69;20148;-72
2022/01/10 03:13:03;;;;;;;4.25;1.80;;;;;;;-1.02;59.21;92019.06;2071306;69;20134;-77
2022/01/10 03:15:29;;;;;;;2.95;1.80;;;;;;;-1.13;59.13;92008.38;2070934;69;20183;-69
2022/01/10 03:17:55;;;;;;;3.35;1.73;;;;;;;-1.17;57.96;92016.31;2071615;69;20206;-73
2022/01/10 03:20:23;;;;;;;5.15;1.85;;;;;;;-1.08;58.49;92021.28;2070728;69;20892;-71
2022/01/10 03:22:49;;;;;;;3.15;1.58;;;;;;;-1.14;57.98;92021.47;2071410;69;20152;-69
2022/01/10 03:25:15;;;;;;;2.10;1.27;;;;;;;-1.07;59.18;92022.75;2070731;69;20176;-70
2022/01/10 03:27:45;;;;;;;1.98;1.40;;;;;;;-1.30;59.37;92031.75;2070642;69;20210;-69
2022/01/10 03:30:10;;;;;;;2.70;1.45;;;;;;;-1.19;58.85;92030.66;2070597;69;20167;-72
2022/01/10 03:32:37;;;;;;;1.83;1.15;;;;;;;-1.09;57.43;92031.59;2070672;69;20187;-75
2022/01/10 03:35:11;;;;;;;4.63;1.48;;;;;;;-1.21;57.43;92038.75;2070521;69;20506;-73
2022/01/10 03:37:38;;;;;;;2.20;1.20;;;;;;;-1.07;57.29;92037.28;2070517;69;20144;-68
2022/01/10 03:40:05;;;;;;;4.15;1.35;;;;;;;-1.16;57.51;92037.09;2070632;69;20188;-81
2022/01/10 03:42:31;;;;;;;3.30;1.52;;;;;;;-1.12;56.70;92046.50;2071315;69;20148;-74
2022/01/10 03:44:57;;;;;;;2.40;1.45;;;;;;;-1.03;57.11;92047.97;2070731;69;20160;-68
2022/01/10 03:47:23;;;;;;;2.92;1.30;;;;;;;-1.25;56.25;92060.47;2070724;69;20222;-68
2022/01/10 03:49:49;;;;;;;3.53;1.50;;;;;;;-1.25;56.55;92057.72;2070241;69;20147;-68
2022/01/10 03:52:15;;;;;;;3.88;1.70;;;;;;;-1.22;57.15;92053.84;2070716;69;20235;-68
2022/01/10 03:54:41;;;;;;;2.83;1.40;;;;;;;-1.20;56.23;92058.81;2070661;69;20140;-69
2022/01/10 03:57:07;;;;;;;4.28;1.60;;;;;;;-1.05;55.15;92062.34;2071103;69;20140;-68
2022/01/10 03:59:33;;;;;;;3.92;1.70;;;;;;;-1.17;56.52;92068.78;2070481;69;20953;-70
2022/01/10 04:02:00;;;;;;;3.17;1.60;;;;;;;-1.22;56.77;92072.47;2071194;69;20156;-68
2022/01/10 04:04:26;;;;;;;6.75;1.80;;;;;;;-1.20;56.58;92072.63;2067758;69;20167;-71
2022/01/10 04:06:55;;;;;;;4.35;1.92;;;;;;;-1.19;56.74;92072.09;2070963;69;20160;-72
2022/01/10 04:09:21;;;;;;;6.75;2.45;;;;;;;-1.23;57.66;92077.25;2070251;69;20160;-68
2022/01/10 04:11:47;;;;;;;3.63;1.90;;;;;;;-1.23;57.38;92085.53;2071028;69;20536;-69
2022/01/10 04:14:14;;;;;;;5.25;2.50;;;;;;;-1.26;57.50;92088.66;2070993;69;20132;-68
2022/01/10 04:16:41;;;;;;;5.22;2.38;;;;;;;-1.18;57.02;92092.16;2070671;69;20167;-68
2022/01/10 04:19:06;;;;;;;4.38;2.25;;;;;;;-1.33;57.81;92098.38;2071080;69;20148;-70
2022/01/10 04:21:33;;;;;;;5.22;2.55;;;;;;;-1.20;57.16;92106.50;2070315;69;20259;-69
2022/01/10 04:24:02;;;;;;;5.47;1.85;;;;;;;-1.13;58.05;92102.31;2071659;69;20150;-68
2022/01/10 04:26:28;;;;;;;4.75;2.10;;;;;;;-1.26;57.78;92107.97;2070917;69;20129;-70
2022/01/10 04:28:54;;;;;;;3.55;1.95;;;;;;;-1.28;57.91;92108.53;2071491;69;20206;-72
2022/01/10 04:31:19;;;;;;;3.70;1.40;;;;;;;-1.56;57.13;92112.13;2071071;69;20147;-68
2022/01/10 04:33:45;;;;;;;2.97;1.52;;;;;;;-1.34;57.47;92116.25;2071056;69;20602;-68
2022/01/10 04:36:11;;;;;;;1.88;0.95;;;;;;;-1.35;56.62;92112.00;2071015;69;20140;-72
2022/01/10 04:38:37;;;;;;;1.88;1.30;;;;;;;-1.19;56.23;92116.28;2071137;69;20218;-77
2022/01/10 04:41:04;;;;;;;2.85;1.50;;;;;;;-1.10;56.10;92113.00;2071162;69;20190;-71
2022/01/10 04:43:30;;;;;;;3.03;1.63;;;;;;;-1.11;55.14;92119.78;2071498;69;20591;-72
2022/01/10 04:45:56;;;;;;;4.53;1.30;;;;;;;-1.12;56.18;92120.34;2072095;69;20159;-70
2022/01/10 04:48:22;;;;;;;2.53;1.48;;;;;;;-1.03;54.69;92128.09;2072231;69;20179;-72
2022/01/10 04:53:33;;;;;;;2.78;1.08;;;;;;;-1.02;55.10;92129.56;2072210;69;20187;-72
2022/01/10 04:55:59;;;;;;;2.80;1.20;;;;;;;-1.01;55.52;92128.28;2071493;69;20132;-78
2022/01/10 04:58:25;;;;;;;4.60;1.23;;;;;;;-1.01;56.49;92125.50;2071534;69;20202;-74
2022/01/10 05:00:53;;;;;;;2.90;1.10;;;;;;;-1.04;54.42;92137.69;2072061;69;20132;-77
2022/01/10 05:03:20;;;;;;;2.15;1.00;;;;;;;-1.12;54.75;92137.66;2071503;69;20496;-73
2022/01/10 05:05:53;;;;;;;2.67;1.20;;;;;;;-0.99;54.72;92138.78;2068582;69;20172;-71
2022/01/10 05:08:23;;;;;;;2.40;1.30;;;;;;;-1.07;54.55;92145.03;2071500;69;20152;-73
2022/01/10 05:10:52;;;;;;;2.17;1.02;;;;;;;-1.34;54.27;92154.91;2071506;69;20247;-74
2022/01/10 05:13:18;;;;;;;3.75;1.05;;;;;;;-1.36;55.23;92158.22;2071484;69;20148;-70
2022/01/10 05:15:49;;;;;;;2.40;1.35;;;;;;;-1.35;54.77;92161.72;2071526;69;20133;-73
2022/01/10 05:18:15;;;;;;;6.07;1.48;;;;;;;-1.22;53.67;92161.56;2071519;69;20148;-80
2022/01/10 05:20:41;;;;;;;1.83;1.20;;;;;;;-1.10;54.00;92173.78;2071885;69;20149;-82
2022/01/10 05:23:07;;;;;;;2.05;1.00;;;;;;;-1.05;53.62;92175.63;2071392;69;20160;-70
2022/01/10 05:25:40;;;;;;;1.88;1.15;;;;;;;-1.32;53.81;92180.69;2071413;69;20183;-70
2022/01/10 05:28:11;;;;;;;3.95;1.27;;;;;;;-1.43;54.08;92185.78;2071461;69;20231;-71
2022/01/10 05:30:39;;;;;;;2.08;1.35;;;;;;;-1.14;54.01;92178.91;2071407;69;20240;-70
2022/01/10 05:33:07;;;;;;;5.20;1.50;;;;;;;-1.25;54.02;92182.00;2071547;69;20171;-70
2022/01/10 05:35:39;;;;;;;6.60;1.40;;;;;;;-1.17;53.82;92187.56;2071233;69;20452;-70
2022/01/10 05:38:06;;;;;;;6.93;1.50;;;;;;;-1.27;53.25;92190.09;2071428;69;20202;-69
2022/01/10 05:40:32;;;;;;;3.97;1.50;;;;;;;-1.49;53.75;92194.22;2071882;69;20144;-70
2022/01/10 05:42:58;;;;;;;4.85;1.50;;;;;;;-1.42;53.49;92199.06;2068551;69;20546;-70
2022/01/10 05:45:26;;;;;;;6.65;1.23;;;;;;;-1.35;53.27;92203.88;2071387;69;20165;-70
2022/01/10 05:47:52;;;;;;;4.28;1.77;;;;;;;-1.16;54.26;92213.88;2071956;69;20171;-71
2022/01/10 05:50:21;;;;;;;4.47;1.70;;;;;;;-1.20;53.19;92211.47;2071227;69;20129;-75
2022/01/10 05:52:48;;;;;;;5.80;1.70;;;;;;;-1.02;53.17;92215.22;2071484;69;20140;-70
2022/01/10 05:55:15;;;;;;;3.55;1.52;;;;;;;-1.01;53.44;92224.97;2071335;69;20156;-76
2022/01/10 05:57:44;;;;;;;2.58;1.30;;;;;;;-1.22;53.35;92227.13;2071328;69;20144;-80
2022/01/10 06:00:11;;;;;;;3.75;1.48;;;;;;;-1.68;53.16;92222.13;2071304;69;20172;-74
2022/01/10 06:02:43;;;;;;;7.43;1.55;;;;;;;-1.39;52.68;92235.88;2071509;69;20153;-73
2022/01/10 06:05:18;;;;;;;6.50;1.77;;;;;;;-1.36;52.32;92243.81;2071207;69;20191;-72
2022/01/10 06:07:48;;;;;;;3.88;1.42;;;;;;;-1.37;53.03;92242.34;2071361;69;20614;-78
2022/01/10 06:10:13;;;;;;;4.05;1.42;;;;;;;-1.30;52.67;92238.13;2071365;69;20148;-74
2022/01/10 06:12:40;;;;;;;4.05;1.60;;;;;;;-1.50;52.44;92250.00;2071334;69;20144;-76
2022/01/10 06:15:06;;;;;;;2.70;1.45;;;;;;;-1.39;52.31;92242.13;2071322;69;20494;-71
2022/01/10 06:17:36;;;;;;;5.53;1.65;;;;;;;-1.31;52.92;92237.41;2071369;69;20214;-70
2022/01/10 06:20:03;;;;;;;5.90;1.65;;;;;;;-1.11;52.57;92254.41;2071739;69;20172;-71
2022/01/10 06:22:28;;;;;;;4.75;1.70;;;;;;;-1.29;52.47;92248.63;2071324;69;20152;-73
2022/01/10 06:24:55;;;;;;;6.43;1.63;;;;;;;-1.06;52.62;92264.56;2071306;69;20213;-71
2022/01/10 06:27:21;;;;;;;6.05;1.95;;;;;;;-1.08;53.13;92259.59;2071265;69;20621;-70
2022/01/10 06:29:47;;;;;;;5.07;1.45;;;;;;;-0.96;52.71;92262.03;2071861;69;20165;-70
2022/01/10 06:32:13;;;;;;;6.97;1.55;;;;;;;-1.03;52.19;92269.75;2071913;69;20151;-71
2022/01/10 06:34:38;;;;;;;6.25;1.48;;;;;;;-1.06;52.29;92265.28;2071177;69;20160;-82
2022/01/10 06:37:05;;;;;;;5.82;1.60;;;;;;;-1.02;51.82;92271.22;2071323;69;20148;-77
2022/01/10 06:39:36;;;;;;;3.30;1.55;;;;;;;-1.16;51.87;92275.38;2071364;69;20282;-81
2022/01/10 06:42:03;;;;;;;3.10;1.60;;;;;;;-1.15;51.48;92278.88;2071508;69;20254;-75
2022/01/10 06:44:29;;;;;;;6.20;2.58;;;;;;;-1.19;52.13;92287.53;2071910;69;20140;-71
2022/01/10 06:46:54;;;;;;;7.28;2.25;;;;;;;-1.06;51.39;92287.41;2071201;69;20183;-76
2022/01/10 06:49:20;;;;;;;13.23;4.25;;;;;;;-0.85;51.39;92290.06;2071281;69;20243;-71
2022/01/10 06:51:46;;;;;;;12.88;3.72;;;;;;;-1.14;51.24;92300.47;2071739;69;20492;-74
2022/01/10 06:54:12;;;;;;;4.82;2.45;;;;;;;-1.26;51.09;92310.31;2071288;69;20152;-77
2022/01/10 06:56:38;;;;;;;3.13;1.80;;;;;;;-0.99;51.52;92312.88;2071305;69;20252;-75
2022/01/10 06:59:03;;;;;;;3.03;1.60;;;;;;;-1.21;49.99;92311.47;2071293;69;20183;-72
2022/01/10 07:01:37;;;;;;;7.85;1.65;;;;;;;-0.84;51.08;92313.66;2071299;69;20271;-78
2022/01/10 07:04:03;;;;;;;6.00;1.88;;;;;;;-1.21;51.06;92328.75;2068679;69;20237;-70
2022/01/10 07:06:29;;;;;;;9.00;3.05;;;;;;;-0.96;51.30;92336.63;2071683;69;20213;-70
2022/01/10 07:08:56;;;;;;;4.97;2.05;;;;;;;-1.01;50.55;92343.78;2071729;69;20667;-78
2022/01/10 07:11:37;;;;;;;7.32;2.05;;;;;;;-0.85;51.82;92339.81;2071819;69;20276;-76
2022/01/10 07:14:04;;;;;;;7.88;1.70;;;;;;;-0.83;51.42;92342.03;2071716;69;20592;-75
2022/01/10 07:16:30;;;;;;;9.50;2.05;;;;;;;-0.85;50.61;92348.13;2071709;69;20578;-77
2022/01/10 07:19:01;;;;;;;4.65;1.90;;;;;;;-0.70;50.68;92346.69;2071736;69;20152;-70
2022/01/10 07:21:32;;;;;;;4.40;2.20;;;;;;;-0.72;51.05;92361.09;2074981;69;20223;-70
2022/01/10 07:23:58;;;;;;;14.73;2.22;;;;;;;-0.67;50.96;92354.66;2071718;69;20151;-70
2022/01/10 07:26:24;;;;;;;8.50;2.40;;;;;;;-0.62;50.89;92370.34;2075314;69;20139;-70
2022/01/10 07:28:49;;;;;;;11.13;2.60;;;;;;;-0.64;50.68;92367.38;2075061;69;20132;-69
2022/01/10 07:31:15;;;;;;;10.07;2.15;;;;;;;-0.57;51.03;92369.44;2075086;69;20180;-70
2022/01/10 07:33:40;;;;;;;15.25;5.55;;;;;;;-0.71;51.99;92378.41;2075091;69;20148;-71
2022/01/10 07:36:06;;;;;;;20.52;7.45;;;;;;;-0.87;53.24;92380.34;2074998;69;20170;-70
2022/01/10 07:38:35;;;;;;;13.57;6.35;;;;;;;-0.63;53.19;92385.44;2075052;69;20239;-69
2022/01/10 07:41:05;;;;;;;9.30;4.72;;;;;;;-0.57;53.50;92391.56;2075079;69;20223;-70
2022/01/10 07:43:32;;;;;;;15.18;4.95;;;;;;;-0.46;53.70;92393.25;2074997;69;20549;-70
2022/01/10 07:46:01;;;;;;;10.93;4.13;;;;;;;-0.46;53.54;92398.78;2071718;69;20143;-70
2022/01/10 07:48:30;;;;;;;11.68;3.47;;;;;;;-0.56;53.46;92403.34;2075010;69;20191;-74
2022/01/10 07:50:56;;;;;;;8.48;3.50;;;;;;;-0.42;53.48;92407.47;2074903;69;20254;-77
2022/01/10 07:53:22;;;;;;;13.02;3.42;;;;;;;-0.44;52.93;92410.03;2075020;69;20151;-74
2022/01/10 07:55:48;;;;;;;10.90;3.40;;;;;;;-0.37;53.48;92414.13;2074981;69;20175;-71
2022/01/10 07:58:14;;;;;;;42.90;7.25;;;;;;;-0.64;54.69;92417.16;2075099;69;20140;-75
2022/01/10 08:00:40;;;;;;;40.78;8.85;;;;;;;-0.42;54.54;92434.38;2075107;69;20136;-75
2022/01/10 08:03:06;;;;;;;14.98;4.72;;;;;;;-0.37;54.28;92434.22;2075045;69;20148;-72
2022/01/10 08:05:31;;;;;;;17.05;3.92;;;;;;;-0.36;54.19;92438.50;2074787;69;20135;-71
2022/01/10 08:07:57;;;;;;;10.52;3.22;;;;;;;-0.37;54.69;92442.50;2075007;69;20202;-69
2022/01/10 08:10:23;;;;;;;9.45;3.13;;;;;;;-0.25;54.22;92445.72;2074986;69;20223;-70
2022/01/10 08:12:48;;;;;;;15.60;3.45;;;;;;;-0.21;54.05;92448.88;2075048;69;20138;-70
2022/01/10 08:15:14;;;;;;;8.52;2.85;;;;;;;-0.38;53.94;92443.81;2075272;69;20148;-70
2022/01/10 08:17:41;;;;;;;12.52;3.53;;;;;;;-0.34;53.54;92458.03;2075000;69;20160;-70
2022/01/10 08:20:07;;;;;;;16.73;3.70;;;;;;;-0.18;53.57;92453.31;2075045;69;20139;-82
2022/01/10 08:22:33;;;;;;;14.70;3.15;;;;;;;-0.08;53.46;92459.06;2074858;69;20239;-73
2022/01/10 08:24:58;;;;;;;11.95;3.33;;;;;;;0.01;53.77;92466.13;2074979;69;20143;-74
2022/01/10 08:27:24;;;;;;;8.20;3.47;;;;;;;-0.11;53.94;92471.22;2075035;69;20176;-79
2022/01/10 08:29:49;;;;;;;13.68;4.18;;;;;;;-0.10;54.17;92476.19;2075049;69;20171;-76
2022/01/10 08:32:16;;;;;;;19.98;4.53;;;;;;;0.01;53.01;92477.94;2074987;69;20140;-80
2022/01/10 08:34:42;;;;;;;12.55;4.40;;;;;;;-0.10;52.64;92476.19;2074876;69;20147;-74
2022/01/10 08:37:07;;;;;;;14.27;4.88;;;;;;;0.20;52.88;92488.69;2075046;69;20246;-79
2022/01/10 08:39:33;;;;;;;16.13;4.05;;;;;;;0.38;53.32;92489.66;2074991;69;20167;-72
2022/01/10 08:41:59;;;;;;;14.82;4.65;;;;;;;0.39;53.03;92488.38;2074976;69;20163;-72
2022/01/10 08:44:24;;;;;;;18.35;5.88;;;;;;;0.45;52.87;92497.25;2074971;69;20144;-71
2022/01/10 08:46:50;;;;;;;16.00;6.15;;;;;;;0.31;53.00;92496.66;2074986;69;20144;-70
2022/01/10 08:49:16;;;;;;;12.70;4.22;;;;;;;0.34;51.92;92492.06;2074936;69;20136;-70
2022/01/10 08:51:42;;;;;;;12.50;4.75;;;;;;;0.50;51.71;92494.31;2075030;69;20156;-76
2022/01/10 08:54:09;;;;;;;19.60;5.25;;;;;;;0.44;50.01;92506.84;2071494;69;20254;-75
2022/01/10 08:56:35;;;;;;;18.63;4.07;;;;;;;0.24;50.49;92511.97;2074874;69;20151;-70
2022/01/10 08:59:01;;;;;;;8.02;3.38;;;;;;;0.48;49.49;92515.53;2074832;69;20199;-71
2022/01/10 09:01:27;;;;;;;9.93;3.45;;;;;;;0.42;50.79;92518.47;2074837;69;20595;-70
2022/01/10 09:03:53;;;;;;;7.15;3.58;;;;;;;0.45;49.80;92517.38;2074786;69;20136;-71
2022/01/10 09:06:20;;;;;;;8.77;3.13;;;;;;;0.46;47.92;92515.34;2074786;69;20160;-70
2022/01/10 09:08:47;;;;;;;5.45;2.75;;;;;;;0.71;49.92;92523.91;2074934;69;20148;-71
2022/01/10 09:11:14;;;;;;;9.90;3.50;;;;;;;0.54;49.20;92527.19;2075394;69;20240;-72
2022/01/10 09:13:40;;;;;;;26.63;13.77;;;;;;;0.50;48.56;92521.25;2075395;69;20152;-70
2022/01/10 09:16:07;;;;;;;22.88;7.07;;;;;;;0.57;50.07;92530.88;2075501;69;20140;-71
2022/01/10 09:18:33;;;;;;;15.20;4.63;;;;;;;0.29;49.34;92535.22;2075513;69;20144;-71
2022/01/10 09:21:00;;;;;;;13.98;3.83;;;;;;;0.42;50.18;92534.38;2075277;69;20159;-71
2022/01/10 09:23:26;;;;;;;11.10;4.25;;;;;;;0.39;48.57;92538.97;2075383;69;20227;-76
2022/01/10 09:25:52;;;;;;;9.85;3.60;;;;;;;0.61;48.17;92531.28;2075347;69;20683;-78
2022/01/10 09:28:19;;;;;;;14.23;4.88;;;;;;;0.68;48.41;92538.84;2075323;69;20183;-77
2022/01/10 09:30:45;;;;;;;13.55;3.50;;;;;;;0.77;48.11;92544.59;2075472;69;20159;-75
2022/01/10 09:33:11;;;;;;;9.48;3.65;;;;;;;0.86;48.05;92548.13;2075371;69;20140;-73
2022/01/10 09:35:37;;;;;;;12.82;4.35;;;;;;;0.71;48.52;92549.56;2075227;69;20170;-72
2022/01/10 09:38:03;;;;;;;10.00;3.65;;;;;;;0.56;48.74;92549.53;2075352;69;20180;-71
2022/01/10 09:40:29;;;;;;;9.90;3.20;;;;;;;0.90;48.34;92559.59;2075264;69;20222;-72
2022/01/10 09:42:54;;;;;;;18.27;3.65;;;;;;;0.82;47.11;92561.59;2075316;69;20231;-73
2022/01/10 09:45:20;;;;;;;10.30;4.35;;;;;;;0.97;47.83;92558.88;2075259;69;20179;-71
2022/01/10 09:47:46;;;;;;;22.38;5.63;;;;;;;0.87;49.12;92561.44;2075379;69;20148;-71
2022/01/10 09:50:16;;;;;;;12.18;4.45;;;;;;;0.64;50.14;92569.69;2075185;69;20169;-71
2022/01/10 09:52:44;;;;;;;24.58;5.10;;;;;;;0.28;49.83;92574.56;2075324;69;20158;-70
2022/01/10 09:55:10;;;;;;;13.55;4.57;;;;;;;0.42;49.87;92573.13;2071961;69;20239;-71
2022/01/10 09:57:36;;;;;;;14.70;4.40;;;;;;;0.44;50.06;92571.28;2075253;69;20140;-72
2022/01/10 10:00:04;;;;;;;20.00;4.50;;;;;;;0.83;49.83;92563.84;2075375;69;20140;-75
2022/01/10 10:02:40;;;;;;;16.50;4.65;;;;;;;0.97;48.82;92567.94;2075173;69;20151;-78
2022/01/10 10:05:09;;;;;;;15.65;5.07;;;;;;;1.14;49.40;92567.38;2074980;69;20155;-74
2022/01/10 10:07:39;;;;;;;19.83;4.65;;;;;;;1.09;49.96;92575.88;2075228;69;20227;-75
2022/01/10 10:10:13;;;;;;;16.25;5.18;;;;;;;1.11;50.02;92574.03;2076195;69;20147;-72
2022/01/10 10:12:42;;;;;;;17.42;4.75;;;;;;;1.27;49.81;92581.06;2075437;69;20239;-78
2022/01/10 10:15:11;;;;;;;15.13;4.68;;;;;;;1.53;47.76;92571.66;2075368;69;20246;-74
2022/01/10 10:17:38;;;;;;;17.90;4.57;;;;;;;1.84;48.06;92582.00;2075300;69;20278;-80
2022/01/10 10:20:14;;;;;;;18.20;4.45;;;;;;;2.06;48.46;92577.69;2075014;69;20148;-77
2022/01/10 10:22:41;;;;;;;11.90;4.78;;;;;;;2.15;47.56;92574.34;2075133;69;20175;-82
2022/01/10 10:25:09;;;;;;;14.38;4.60;;;;;;;2.05;46.29;92582.50;2075307;69;20144;-75
2022/01/10 10:27:45;;;;;;;13.95;4.65;;;;;;;2.16;46.84;92589.72;2075262;69;20148;-77
2022/01/10 10:30:18;;;;;;;13.13;4.88;;;;;;;2.26;46.04;92582.28;2075345;69;20159;-71
2022/01/10 10:32:44;;;;;;;9.43;5.43;;;;;;;2.39;46.76;92592.44;2075176;69;20132;-71
2022/01/10 10:35:11;;;;;;;18.42;5.55;;;;;;;2.53;46.86;92588.84;2075127;69;20139;-72
2022/01/10 10:37:39;;;;;;;14.73;5.90;;;;;;;2.55;45.18;92589.03;2075310;69;20181;-71
2022/01/10 10:40:08;;;;;;;10.57;4.25;;;;;;;2.76;46.23;92593.59;2075286;69;20514;-72
2022/01/10 10:42:34;;;;;;;16.75;4.75;;;;;;;2.65;45.12;92591.94;2075163;69;20514;-71
2022/01/10 10:45:08;;;;;;;13.18;5.50;;;;;;;2.38;45.38;92600.00;2075459;69;20140;-77
2022/01/10 10:47:36;;;;;;;17.88;4.90;;;;;;;2.51;44.73;92597.00;2075357;69;20148;-73
2022/01/10 10:50:05;;;;;;;13.52;4.60;;;;;;;2.48;44.74;92595.38;2075007;69;20610;-79
2022/01/10 10:52:33;;;;;;;12.77;4.28;;;;;;;2.50;44.62;92594.78;2075119;69;20596;-71
2022/01/10 10:55:07;;;;;;;15.70;5.47;;;;;;;2.41;45.28;92598.16;2075082;69;20175;-71
2022/01/10 10:57:32;;;;;;;14.38;5.65;;;;;;;2.29;45.89;92604.13;2075241;69;20147;-71
2022/01/10 11:00:00;;;;;;;10.65;4.18;;;;;;;2.53;45.38;92605.53;2075334;69;20175;-71
2022/01/10 11:02:27;;;;;;;11.85;3.88;;;;;;;2.33;45.97;92598.16;2075190;69;20164;-74
2022/01/10 11:04:53;;;;;;;9.55;3.50;;;;;;;2.68;45.56;92607.50;2074868;69;20236;-72
2022/01/10 11:07:22;;;;;;;9.82;3.40;;;;;;;2.91;45.69;92604.63;2075222;69;20142;-72
2022/01/10 11:09:48;;;;;;;9.63;4.55;;;;;;;2.84;46.32;92608.19;2075345;69;20148;-72
2022/01/10 11:12:16;;;;;;;10.38;4.03;;;;;;;2.80;45.80;92610.63;2075142;69;20217;-74
2022/01/10 11:14:43;;;;;;;13.80;3.80;;;;;;;2.48;45.50;92612.03;2075226;69;20152;-72
2022/01/10 11:17:17;;;;;;;13.55;3.83;;;;;;;2.73;46.25;92617.69;2075120;69;20144;-72
2022/01/10 11:19:42;;;;;;;8.82;4.05;;;;;;;2.73;45.56;92620.47;2074988;69;20206;-72
2022/01/10 11:22:09;;;;;;;6.22;2.78;;;;;;;2.75;46.36;92629.00;2075218;69;20190;-72
2022/01/10 11:24:47;;;;;;;14.10;3.75;;;;;;;2.39;46.50;92628.56;2075168;69;20289;-78
2022/01/10 11:27:28;;;;;;;15.70;4.90;;;;;;;2.14;48.00;92631.91;2075169;69;20151;-82
2022/01/10 11:29:56;;;;;;;10.00;5.00;;;;;;;2.68;47.75;92624.19;2075032;69;20142;-76
2022/01/10 11:33:07;;;;;;;10.15;5.32;;;;;;;2.96;47.86;92628.69;2075056;69;20676;-77
2022/01/10 11:35:38;;;;;;;9.60;4.00;;;;;;;3.00;46.97;92628.31;2071709;69;20147;-73
2022/01/10 11:38:29;;;;;;;11.05;4.88;;;;;;;3.04;47.02;92634.97;2075070;69;20152;-72
2022/01/10 11:41:02;;;;;;;13.20;4.50;;;;;;;2.98;47.57;92628.91;2075026;69;20171;-71
2022/01/10 11:43:53;;;;;;;11.35;4.38;;;;;;;2.96;47.36;92634.25;2075050;69;20148;-71
2022/01/10 11:46:37;;;;;;;11.20;3.78;;;;;;;2.49;47.80;92632.22;2071668;69;20151;-72
2022/01/10 11:49:09;;;;;;;8.25;3.50;;;;;;;2.60;47.78;92633.84;2075057;69;20205;-72
2022/01/10 11:51:41;;;;;;;8.10;3.80;;;;;;;2.42;49.14;92642.03;2074986;69;20132;-72